createdAt,value
2019-04-21T00:02:06.450Z,8.90
2019-04-21T00:04:53.904Z,8.05
2019-04-21T00:07:31.618Z,8.83
2019-04-21T00:10:05.796Z,6.90
2019-04-21T00:12:34.487Z,6.92
2019-04-21T00:17:24.879Z,7.22
2019-04-21T00:20:11.432Z,7.08
2019-04-21T00:22:44.263Z,7.92
2019-04-21T00:25:18.111Z,7.30
2019-04-21T00:27:52.769Z,8.00
2019-04-21T00:32:54.117Z,8.05
2019-04-21T00:35:19.615Z,6.72
2019-04-21T00:38:08.279Z,7.10
2019-04-21T00:40:41.507Z,6.80
2019-04-21T00:45:39.211Z,6.95
2019-04-21T00:51:12.326Z,7.62
2019-04-21T00:53:44.143Z,7.00
2019-04-21T00:56:11.686Z,7.00
2019-04-21T00:58:39.583Z,6.03
2019-04-21T01:01:12.558Z,6.40
2019-04-21T01:03:47.506Z,6.30
2019-04-21T01:06:22.745Z,6.22
2019-04-21T01:08:48.928Z,5.92
2019-04-21T01:11:29.839Z,6.20
2019-04-21T01:13:58.276Z,5.55
2019-04-21T01:16:33.479Z,5.30
2019-04-21T01:19:05.310Z,5.30
2019-04-21T01:21:16.462Z,5.03
2019-04-21T01:23:48.626Z,5.50
2019-04-21T01:29:13.273Z,5.37
2019-04-21T01:34:27.455Z,5.00
2019-04-21T01:39:29.449Z,4.97
2019-04-21T01:41:57.343Z,4.83
2019-04-21T01:44:37.639Z,4.72
2019-04-21T01:46:58.630Z,4.80
2019-04-21T01:49:33.335Z,4.47
2019-04-21T01:52:34.408Z,4.85
2019-04-21T01:55:06.253Z,5.00
2019-04-21T01:58:02.860Z,4.97
2019-04-21T02:00:58.280Z,5.22
2019-04-21T02:08:44.925Z,5.80
2019-04-21T02:11:16.999Z,6.22
2019-04-21T02:13:57.234Z,5.30
2019-04-21T02:16:23.883Z,5.08
2019-04-21T02:18:55.229Z,5.62
2019-04-21T02:21:22.134Z,5.83
2019-04-21T02:24:07.146Z,5.65
2019-04-21T02:26:53.872Z,5.37
2019-04-21T02:29:19.581Z,6.55
2019-04-21T02:32:00.082Z,5.83
2019-04-21T02:34:27.395Z,5.37
2019-04-21T02:37:36.759Z,6.03
2019-04-21T02:39:43.640Z,5.70
2019-04-21T02:42:20.044Z,5.12
2019-04-21T02:44:43.011Z,5.42
2019-04-21T02:47:16.720Z,4.78
2019-04-21T02:49:53.567Z,4.55
2019-04-21T02:57:22.903Z,5.12
2019-04-21T03:00:06.433Z,5.47
2019-04-21T03:02:54.598Z,5.95
2019-04-21T03:06:02.647Z,5.28
2019-04-21T03:11:09.077Z,5.47
2019-04-21T03:13:50.747Z,5.25
2019-04-21T03:18:48.539Z,5.12
2019-04-21T03:29:03.325Z,7.22
2019-04-21T03:31:49.663Z,4.50
2019-04-21T03:39:03.052Z,5.67
2019-04-21T03:41:48.821Z,4.95
2019-04-21T03:44:16.849Z,4.92
2019-04-21T03:47:03.422Z,4.70
2019-04-21T03:49:28.964Z,5.15
2019-04-21T03:52:09.066Z,4.75
2019-04-21T03:57:21.810Z,4.45
2019-04-21T03:59:40.832Z,4.33
2019-04-21T04:02:28.355Z,5.00
2019-04-21T04:05:03.385Z,4.60
2019-04-21T04:12:48.718Z,4.28
2019-04-21T04:15:20.508Z,4.35
2019-04-21T04:17:47.721Z,4.35
2019-04-21T04:23:08.057Z,4.55
2019-04-21T04:25:27.340Z,4.78
2019-04-21T04:28:09.858Z,4.40
2019-04-21T04:30:39.535Z,4.60
2019-04-21T04:33:20.765Z,4.28
2019-04-21T04:38:23.389Z,4.08
2019-04-21T04:46:07.166Z,4.47
2019-04-21T04:48:35.364Z,4.70
2019-04-21T04:51:33.387Z,4.80
2019-04-21T04:53:44.281Z,4.22
2019-04-21T04:59:18.598Z,4.50
2019-04-21T05:01:34.955Z,4.28
2019-04-21T05:04:02.579Z,4.78
2019-04-21T05:09:07.820Z,4.58
2019-04-21T05:11:44.523Z,4.28
2019-04-21T05:24:07.496Z,4.28
2019-04-21T05:26:42.271Z,4.33
2019-04-21T05:29:11.003Z,4.75
2019-04-21T05:32:00.487Z,4.87
2019-04-21T05:34:36.021Z,5.00
2019-04-21T05:37:28.918Z,4.35
2019-04-21T05:40:10.639Z,4.70
2019-04-21T05:42:39.918Z,4.20
2019-04-21T05:45:38.192Z,3.85
2019-04-21T05:48:13.245Z,4.10
2019-04-21T05:50:32.554Z,3.92
2019-04-21T05:53:17.627Z,4.35
2019-04-21T05:55:50.282Z,4.35
2019-04-21T06:03:30.626Z,4.20
2019-04-21T06:06:10.773Z,4.37
2019-04-21T06:11:07.567Z,4.78
2019-04-21T06:13:48.164Z,4.20
2019-04-21T06:16:13.995Z,4.03
2019-04-21T06:18:52.956Z,4.25
2019-04-21T06:23:50.001Z,3.77
2019-04-21T06:29:02.779Z,3.75
2019-04-21T06:37:01.446Z,3.30
2019-04-21T06:41:59.820Z,4.08
2019-04-21T06:44:33.713Z,3.70
2019-04-21T06:49:40.119Z,3.72
2019-04-21T06:54:50.785Z,3.58
2019-04-21T06:57:16.582Z,3.92
2019-04-21T06:59:51.053Z,3.55
2019-04-21T07:05:00.538Z,3.27
2019-04-21T07:10:10.284Z,3.90
2019-04-21T07:12:34.302Z,3.52
2019-04-21T07:15:13.507Z,3.77
2019-04-21T07:17:40.285Z,3.25
2019-04-21T07:20:18.844Z,3.12
2019-04-21T07:25:22.073Z,3.58
2019-04-21T07:27:58.043Z,3.12
2019-04-21T07:30:37.764Z,4.00
2019-04-21T07:33:24.007Z,3.70
2019-04-21T07:35:37.668Z,3.25
2019-04-21T07:38:12.071Z,3.30
2019-04-21T07:40:41.699Z,3.72
2019-04-21T07:43:16.669Z,3.70
2019-04-21T07:45:55.460Z,3.35
2019-04-21T07:48:37.773Z,3.90
2019-04-21T07:51:25.435Z,3.35
2019-04-21T07:54:13.348Z,3.50
2019-04-21T07:59:02.082Z,3.70
2019-04-21T08:01:40.124Z,4.12
2019-04-21T08:04:33.218Z,3.50
2019-04-21T08:06:46.064Z,3.25
2019-04-21T08:09:18.312Z,4.28
2019-04-21T08:11:56.160Z,3.60
2019-04-21T08:14:31.279Z,3.70
2019-04-21T08:17:03.221Z,4.10
2019-04-21T08:22:11.449Z,3.70
2019-04-21T08:24:47.015Z,4.25
2019-04-21T08:27:23.518Z,3.42
2019-04-21T08:29:51.633Z,4.05
2019-04-21T08:32:31.683Z,3.95
2019-04-21T08:35:14.718Z,4.17
2019-04-21T08:37:32.144Z,3.20
2019-04-21T08:42:41.542Z,3.70
2019-04-21T08:45:15.130Z,4.00
2019-04-21T08:47:45.764Z,3.42
2019-04-21T08:50:15.282Z,3.15
2019-04-21T08:55:49.015Z,3.60
2019-04-21T08:58:52.866Z,3.83
2019-04-21T09:01:50.355Z,3.90
2019-04-21T09:04:18.511Z,4.03
2019-04-21T09:09:31.961Z,3.20
2019-04-21T09:12:01.632Z,3.20
2019-04-21T09:14:37.083Z,3.45
2019-04-21T09:22:13.302Z,3.15
2019-04-21T09:24:46.858Z,3.00
2019-04-21T09:27:18.390Z,3.08
2019-04-21T09:32:14.613Z,2.90
2019-04-21T09:34:43.482Z,2.85
2019-04-21T09:39:48.833Z,3.37
2019-04-21T09:42:19.715Z,3.02
2019-04-21T09:44:55.238Z,2.70
2019-04-21T09:47:33.585Z,2.60
2019-04-21T09:52:38.833Z,2.30
2019-04-21T09:55:07.054Z,2.92
2019-04-21T09:57:43.313Z,2.50
2019-04-21T10:00:15.121Z,2.42
2019-04-21T10:02:53.467Z,2.40
2019-04-21T10:05:17.065Z,2.72
2019-04-21T10:07:48.925Z,2.90
2019-04-21T10:10:21.367Z,2.47
2019-04-21T10:12:53.897Z,2.75
2019-04-21T10:15:27.845Z,2.15
2019-04-21T10:20:32.915Z,2.62
2019-04-21T10:23:05.039Z,2.80
2019-04-21T10:25:36.826Z,2.22
2019-04-21T10:28:08.194Z,2.58
2019-04-21T10:30:40.751Z,2.80
2019-04-21T10:33:12.524Z,2.95
2019-04-21T10:35:43.893Z,2.45
2019-04-21T10:38:26.076Z,2.50
2019-04-21T10:40:49.627Z,2.25
2019-04-21T10:43:23.694Z,2.80
2019-04-21T10:45:55.026Z,2.90
2019-04-21T10:48:26.282Z,2.33
2019-04-21T10:50:57.530Z,2.80
2019-04-21T10:53:32.081Z,2.30
2019-04-21T10:56:17.572Z,2.15
2019-04-21T10:58:40.474Z,2.30
2019-04-21T11:01:14.407Z,2.15
2019-04-21T11:04:00.505Z,2.27
2019-04-21T11:06:32.687Z,2.27
2019-04-21T11:09:07.284Z,1.90
2019-04-21T11:11:40.038Z,2.47
2019-04-21T11:14:11.868Z,2.35
2019-04-21T11:16:45.842Z,2.12
2019-04-21T11:21:47.121Z,2.27
2019-04-21T11:24:18.520Z,2.20
2019-04-21T11:26:51.981Z,2.55
2019-04-21T11:29:26.136Z,2.37
2019-04-21T11:31:57.079Z,2.37
2019-04-21T11:34:29.261Z,2.30
2019-04-21T11:37:01.845Z,2.00
2019-04-21T11:39:42.087Z,2.40
2019-04-21T11:42:15.626Z,2.10
2019-04-21T11:44:49.425Z,2.25
2019-04-21T11:47:26.352Z,2.15
2019-04-21T11:49:58.989Z,3.37
2019-04-21T11:52:31.042Z,2.70
2019-04-21T11:55:04.658Z,2.27
2019-04-21T11:57:41.598Z,2.30
2019-04-21T12:00:11.386Z,2.58
2019-04-21T12:02:43.702Z,1.92
2019-04-21T12:05:15.199Z,2.15
2019-04-21T12:07:47.211Z,2.37
2019-04-21T12:10:19.631Z,2.33
2019-04-21T12:12:51.121Z,2.33
2019-04-21T12:15:22.997Z,2.20
2019-04-21T12:17:54.383Z,2.22
2019-04-21T12:20:26.886Z,2.00
2019-04-21T12:22:58.938Z,2.72
2019-04-21T12:25:34.716Z,2.62
2019-04-21T12:28:06.026Z,2.37
2019-04-21T12:30:37.824Z,2.20
2019-04-21T12:33:16.186Z,2.72
2019-04-21T12:35:48.170Z,2.17
2019-04-21T12:38:30.104Z,3.33
2019-04-21T12:40:52.792Z,2.05
2019-04-21T12:43:24.587Z,2.37
2019-04-21T12:45:56.241Z,2.52
2019-04-21T12:48:29.627Z,2.33
2019-04-21T12:51:01.895Z,2.10
2019-04-21T12:53:34.159Z,2.12
2019-04-21T12:56:07.444Z,2.08
2019-04-21T12:58:39.615Z,2.45
2019-04-21T13:01:10.990Z,2.50
2019-04-21T13:03:43.783Z,2.05
2019-04-21T13:06:16.215Z,1.92
2019-04-21T13:08:54.534Z,2.30
2019-04-21T13:11:21.746Z,2.08
2019-04-21T13:13:53.658Z,2.67
2019-04-21T13:16:25.606Z,2.08
2019-04-21T13:18:57.618Z,2.00
2019-04-21T13:21:30.069Z,2.15
2019-04-21T13:24:01.375Z,1.92
2019-04-21T13:26:42.910Z,2.40
2019-04-21T13:29:06.471Z,1.87
2019-04-21T13:31:38.408Z,2.10
2019-04-21T13:34:10.602Z,2.17
2019-04-21T13:36:43.648Z,1.85
2019-04-21T13:39:55.264Z,2.10
2019-04-21T13:42:18.418Z,2.20
2019-04-21T13:44:41.565Z,2.20
2019-04-21T13:47:14.441Z,2.10
2019-04-21T13:49:47.521Z,2.10
2019-04-21T13:52:20.499Z,2.00
2019-04-21T13:54:52.056Z,2.17
2019-04-21T13:57:23.343Z,1.80
2019-04-21T13:59:55.135Z,1.82
2019-04-21T14:02:26.885Z,2.10
2019-04-21T14:04:59.143Z,1.95
2019-04-21T14:07:30.531Z,1.90
2019-04-21T14:10:06.593Z,2.00
2019-04-21T14:12:36.088Z,1.90
2019-04-21T14:15:08.406Z,2.67
2019-04-21T14:17:40.175Z,1.95
2019-04-21T14:20:13.215Z,2.10
2019-04-21T14:22:44.729Z,2.47
2019-04-21T14:25:17.473Z,1.80
2019-04-21T14:27:51.912Z,1.98
2019-04-21T14:30:24.467Z,1.92
2019-04-21T14:35:27.474Z,1.87
2019-04-21T14:38:00.514Z,1.95
2019-04-21T14:40:34.962Z,2.77
2019-04-21T14:45:45.144Z,2.35
2019-04-21T14:48:39.214Z,2.47
2019-04-21T14:54:20.551Z,2.30
2019-04-21T14:56:53.429Z,2.20
2019-04-21T14:59:31.160Z,2.60
2019-04-21T15:02:03.932Z,2.00
2019-04-21T15:04:35.915Z,2.30
2019-04-21T15:07:15.011Z,2.00
2019-04-21T15:09:58.794Z,2.22
2019-04-21T15:12:21.378Z,1.75
2019-04-21T15:14:56.014Z,2.25
2019-04-21T15:17:35.807Z,2.55
2019-04-21T15:20:12.219Z,2.00
2019-04-21T15:22:42.022Z,2.95
2019-04-21T15:27:46.650Z,1.92
2019-04-21T15:30:20.643Z,2.00
2019-04-21T15:32:52.787Z,2.02
2019-04-21T15:35:25.296Z,2.20
2019-04-21T15:37:58.038Z,2.20
2019-04-21T15:40:40.059Z,2.15
2019-04-21T15:45:34.938Z,2.02
2019-04-21T15:48:08.206Z,2.33
2019-04-21T15:50:41.812Z,2.02
2019-04-21T15:53:15.978Z,2.17
2019-04-21T15:56:10.999Z,2.00
2019-04-21T15:59:08.388Z,2.50
2019-04-21T16:01:52.832Z,2.22
2019-04-21T16:04:25.091Z,2.40
2019-04-21T16:06:57.452Z,2.62
2019-04-21T16:09:31.218Z,2.30
2019-04-21T16:12:03.983Z,2.00
2019-04-21T16:14:36.474Z,2.15
2019-04-21T16:17:09.548Z,2.20
2019-04-21T16:19:41.687Z,2.15
2019-04-21T16:22:14.774Z,2.10
2019-04-21T16:24:47.709Z,2.30
2019-04-21T16:27:19.692Z,2.37
2019-04-21T16:29:52.420Z,2.20
2019-04-21T16:32:25.882Z,2.47
2019-04-21T16:35:03.273Z,2.47
2019-04-21T16:37:31.860Z,1.90
2019-04-21T16:40:03.729Z,2.08
2019-04-21T16:42:36.272Z,2.08
2019-04-21T16:45:10.801Z,1.65
2019-04-21T16:47:42.462Z,2.20
2019-04-21T16:50:15.669Z,2.33
2019-04-21T16:52:54.480Z,2.70
2019-04-21T16:55:32.947Z,2.02
2019-04-21T16:58:25.691Z,2.58
2019-04-21T17:01:08.578Z,2.35
2019-04-21T17:03:36.745Z,2.12
2019-04-21T17:06:11.049Z,1.87
2019-04-21T17:08:45.058Z,2.42
2019-04-21T17:11:25.927Z,1.77
2019-04-21T17:13:54.141Z,2.15
2019-04-21T17:16:51.495Z,2.00
2019-04-21T17:19:11.356Z,2.05
2019-04-21T17:21:34.209Z,2.30
2019-04-21T17:24:06.467Z,1.92
2019-04-21T17:26:41.144Z,2.17
2019-04-21T17:29:12.336Z,2.10
2019-04-21T17:31:45.674Z,2.00
2019-04-21T17:34:21.787Z,2.15
2019-04-21T17:36:50.942Z,2.12
2019-04-21T17:39:22.873Z,2.00
2019-04-21T17:42:05.669Z,2.10
2019-04-21T17:44:27.730Z,2.30
2019-04-21T17:47:03.892Z,1.95
2019-04-21T17:52:42.857Z,2.00
2019-04-21T17:55:25.457Z,2.08
2019-04-21T17:58:09.705Z,2.05
2019-04-21T18:01:05.294Z,2.45
2019-04-21T18:03:29.584Z,2.17
2019-04-21T18:05:50.349Z,1.90
2019-04-21T18:08:29.450Z,2.40
2019-04-21T18:10:54.345Z,2.50
2019-04-21T18:13:22.674Z,2.22
2019-04-21T18:16:03.741Z,43.08
2019-04-21T18:18:26.542Z,91.15
2019-04-21T18:21:04.853Z,87.47
2019-04-21T18:23:57.421Z,16.17
2019-04-21T18:26:35.023Z,4.62
2019-04-21T18:28:59.106Z,3.80
2019-04-21T18:31:33.806Z,8.13
2019-04-21T18:34:30.571Z,63.28
2019-04-21T18:37:12.299Z,57.25
2019-04-21T18:39:57.558Z,6.53
2019-04-21T18:42:42.218Z,38.35
2019-04-21T18:45:57.203Z,42.17
2019-04-21T18:51:20.228Z,6.62
2019-04-21T18:54:17.384Z,32.90
2019-04-21T18:56:29.704Z,17.92
2019-04-21T18:59:02.472Z,33.18
2019-04-21T19:01:36.645Z,11.35
2019-04-21T19:04:14.353Z,29.00
2019-04-21T19:07:03.071Z,27.55
2019-04-21T19:09:57.300Z,25.43
2019-04-21T19:12:19.540Z,28.52
2019-04-21T19:14:40.151Z,22.65
2019-04-21T19:19:54.364Z,8.60
2019-04-21T19:22:20.426Z,15.38
2019-04-21T19:24:59.447Z,12.90
2019-04-21T19:30:21.697Z,14.23
2019-04-21T19:32:33.484Z,5.90
2019-04-21T19:34:57.075Z,10.35
2019-04-21T19:37:27.860Z,4.20
2019-04-21T19:40:07.957Z,7.60
2019-04-21T19:42:39.796Z,3.55
2019-04-21T19:45:17.648Z,7.70
2019-04-21T19:47:55.597Z,18.15
2019-04-21T19:50:32.290Z,42.73
2019-04-21T19:52:52.000Z,22.05
2019-04-21T19:57:49.258Z,38.58
2019-04-21T20:00:22.404Z,43.30
2019-04-21T20:02:56.573Z,15.50
2019-04-21T20:05:39.048Z,33.23
2019-04-21T20:08:23.630Z,30.50
2019-04-21T20:11:04.043Z,25.00
2019-04-21T20:13:46.659Z,26.70
2019-04-21T20:18:32.505Z,5.17
2019-04-21T20:20:58.351Z,16.40
2019-04-21T20:23:32.756Z,22.58
2019-04-21T20:26:10.096Z,20.88
2019-04-21T20:28:54.437Z,23.73
2019-04-21T20:31:31.530Z,14.25
2019-04-21T20:34:11.311Z,3.33
2019-04-21T20:36:41.810Z,2.90
2019-04-21T20:39:05.649Z,4.87
2019-04-21T20:41:44.007Z,2.90
2019-04-21T20:44:23.062Z,3.22
2019-04-21T20:46:54.501Z,2.98
2019-04-21T20:49:21.739Z,3.08
2019-04-21T20:52:10.384Z,2.80
2019-04-21T20:54:40.781Z,3.80
2019-04-21T21:01:20.198Z,4.15
2019-04-21T21:03:35.239Z,4.22
2019-04-21T21:06:08.275Z,3.98
2019-04-21T21:08:45.373Z,4.37
2019-04-21T21:11:21.292Z,4.50
2019-04-21T21:13:53.674Z,4.35
2019-04-21T21:16:29.213Z,4.50
2019-04-21T21:19:11.633Z,5.28
2019-04-21T21:21:32.492Z,5.22
2019-04-21T21:24:07.077Z,5.30
2019-04-21T21:26:44.098Z,5.20
2019-04-21T21:29:06.677Z,5.08
2019-04-21T21:31:47.688Z,5.85
2019-04-21T21:34:27.539Z,5.97
2019-04-21T21:36:54.007Z,5.80
2019-04-21T21:41:49.793Z,5.05
2019-04-21T21:44:21.211Z,5.15
2019-04-21T21:47:00.560Z,4.90
2019-04-21T21:49:39.409Z,6.17
2019-04-21T21:52:06.932Z,5.05
2019-04-21T21:54:31.854Z,4.80
2019-04-21T21:57:04.749Z,6.83
2019-04-21T21:59:39.669Z,5.15
2019-04-21T22:02:17.125Z,6.03
2019-04-21T22:04:54.684Z,7.70
2019-04-21T22:07:22.547Z,6.60
2019-04-21T22:12:23.845Z,6.20
2019-04-21T22:14:57.447Z,5.92
2019-04-21T22:17:44.646Z,7.53
2019-04-21T22:20:21.499Z,7.35
2019-04-21T22:25:15.333Z,7.50
2019-04-21T22:27:43.378Z,7.58
2019-04-21T22:30:24.746Z,7.35
2019-04-21T22:32:55.410Z,6.55
2019-04-21T22:35:30.049Z,7.17
2019-04-21T22:38:13.985Z,5.83
2019-04-21T22:40:47.171Z,6.90
2019-04-21T22:45:35.649Z,6.97
2019-04-21T22:48:14.324Z,6.87
2019-04-21T22:50:42.362Z,6.90
2019-04-21T22:55:49.540Z,6.50
2019-04-21T23:00:56.415Z,5.85
2019-04-21T23:03:25.199Z,5.80
2019-04-21T23:06:11.788Z,6.25
2019-04-21T23:08:41.736Z,5.97
2019-04-21T23:11:16.103Z,5.85
2019-04-21T23:14:10.320Z,6.12
2019-04-21T23:19:30.822Z,6.03
2019-04-21T23:22:02.416Z,6.67
2019-04-21T23:27:02.649Z,6.12
2019-04-21T23:32:13.147Z,6.65
2019-04-21T23:34:36.540Z,6.12
2019-04-21T23:37:10.570Z,5.92
2019-04-21T23:39:37.558Z,5.85
2019-04-21T23:42:09.212Z,6.70
2019-04-21T23:44:45.914Z,5.45
2019-04-21T23:47:29.245Z,5.53
2019-04-21T23:49:57.650Z,5.90
2019-04-21T23:54:53.532Z,5.17
2019-04-21T23:57:32.595Z,5.25
